Map

Track Data

SID SEASON NUMBER BASIN SUBBASIN NAME ISO_TIME NATURE LAT LON WMO_WIND WMO_PRES WMO_AGENCY TRACK_TYPE DIST2LAND LANDFALL IFLAG USA_AGENCY USA_ATCF_ID USA_LAT USA_LON USA_RECORD USA_STATUS USA_WIND USA_PRES USA_SSHS USA_R34_NE USA_R34_SE USA_R34_SW USA_R34_NW USA_R50_NE USA_R50_SE USA_R50_SW USA_R50_NW USA_R64_NE USA_R64_SE USA_R64_SW USA_R64_NW USA_POCI USA_ROCI USA_RMW USA_EYE TOKYO_LAT TOKYO_LON TOKYO_GRADE TOKYO_WIND TOKYO_PRES TOKYO_R50_DIR TOKYO_R50_LONG TOKYO_R50_SHORT TOKYO_R30_DIR TOKYO_R30_LONG TOKYO_R30_SHORT TOKYO_LAND CMA_LAT CMA_LON CMA_CAT CMA_WIND CMA_PRES HKO_LAT HKO_LON HKO_CAT HKO_WIND HKO_PRES NEWDELHI_LAT NEWDELHI_LON NEWDELHI_GRADE NEWDELHI_WIND NEWDELHI_PRES NEWDELHI_CI NEWDELHI_DP NEWDELHI_POCI REUNION_LAT REUNION_LON REUNION_TYPE REUNION_WIND REUNION_PRES REUNION_TNUM REUNION_CI REUNION_RMW REUNION_R34_NE REUNION_R34_SE REUNION_R34_SW REUNION_R34_NW REUNION_R50_NE REUNION_R50_SE REUNION_R50_SW REUNION_R50_NW REUNION_R64_NE REUNION_R64_SE REUNION_R64_SW REUNION_R64_NW BOM_LAT BOM_LON BOM_TYPE BOM_WIND BOM_PRES BOM_TNUM BOM_CI BOM_RMW BOM_R34_NE BOM_R34_SE BOM_R34_SW BOM_R34_NW BOM_R50_NE BOM_R50_SE BOM_R50_SW BOM_R50_NW BOM_R64_NE BOM_R64_SE BOM_R64_SW BOM_R64_NW BOM_ROCI BOM_POCI BOM_EYE BOM_POS_METHOD BOM_PRES_METHOD NADI_LAT NADI_LON NADI_CAT NADI_WIND NADI_PRES WELLINGTON_LAT WELLINGTON_LON WELLINGTON_WIND WELLINGTON_PRES DS824_LAT DS824_LON DS824_STAGE DS824_WIND DS824_PRES TD9636_LAT TD9636_LON TD9636_STAGE TD9636_WIND TD9636_PRES TD9635_LAT TD9635_LON TD9635_WIND TD9635_PRES TD9635_ROCI NEUMANN_LAT NEUMANN_LON NEUMANN_CLASS NEUMANN_WIND NEUMANN_PRES MLC_LAT MLC_LON MLC_CLASS MLC_WIND MLC_PRES USA_GUST BOM_GUST BOM_GUST_PER REUNION_GUST REUNION_GUST_PER USA_SEAHGT USA_SEARAD_NE USA_SEARAD_SE USA_SEARAD_SW USA_SEARAD_NW STORM_SPEED STORM_DIR
1974246N27292 1974 99 NA NA DOLLY 1974-09-02 18:00:00 TS 27.2000 -67.9000 30 hurdat_atl main 846 834 O_____________ hurdat_atl AL121974 27.2000 -67.9000 TD 30 -1 11 297
1974246N27292 1974 99 NA NA DOLLY 1974-09-02 21:00:00 TS 27.4454 -68.4470 main 834 826 P_____________ AL121974 27.4454 -68.4470 TD 30 -1 11 297
1974246N27292 1974 99 NA NA DOLLY 1974-09-03 00:00:00 TS 27.7000 -69.0000 30 hurdat_atl main 831 826 O_____________ hurdat_atl AL121974 27.7000 -69.0000 TD 30 -1 11 298
1974246N27292 1974 99 NA NA DOLLY 1974-09-03 03:00:00 TS 27.9774 -69.5578 main 833 829 P_____________ AL121974 27.9774 -69.5578 TD 30 -1 11 302
1974246N27292 1974 99 NA NA DOLLY 1974-09-03 06:00:00 TS 28.3000 -70.1000 30 hurdat_atl main 845 830 O_____________ hurdat_atl AL121974 28.3000 -70.1000 TD 30 -1 12 306
1974246N27292 1974 99 NA NA DOLLY 1974-09-03 09:00:00 TS 28.6623 -70.6155 main 835 805 P_____________ AL121974 28.6623 -70.6155 TD 30 -1 12 312
1974246N27292 1974 99 NA NA DOLLY 1974-09-03 12:00:00 TS 29.1000 -71.1000 30 hurdat_atl main 805 731 O_____________ hurdat_atl AL121974 29.1000 -71.1000 TD 30 -1 13 318
1974246N27292 1974 99 NA NA DOLLY 1974-09-03 15:00:00 TS 29.5900 -71.5803 main 731 655 P_____________ AL121974 29.5900 -71.5803 TD 37 0 14 325
1974246N27292 1974 99 NA NA DOLLY 1974-09-03 18:00:00 TS 30.2000 -72.0000 45 1005 hurdat_atl main 655 570 O_____________ hurdat_atl AL121974 30.2000 -72.0000 TS 45 1005 0 15 333
1974246N27292 1974 99 NA NA DOLLY 1974-09-03 21:00:00 TS 30.9475 -72.3669 main 570 485 P_____________ AL121974 30.9475 -72.3669 TS 45 0 17 342
1974246N27292 1974 99 NA NA DOLLY 1974-09-04 00:00:00 TS 31.8000 -72.6000 45 hurdat_atl main 485 419 O_____________ hurdat_atl AL121974 31.8000 -72.6000 TS 45 0 18 351
1974246N27292 1974 99 NA NA DOLLY 1974-09-04 03:00:00 TS 32.6773 -72.6825 main 412 367 P_____________ AL121974 32.6773 -72.6825 TS 45 0 18 1
1974246N27292 1974 99 NA NA DOLLY 1974-09-04 06:00:00 TS 33.6000 -72.6000 45 hurdat_atl main 360 308 O_____________ hurdat_atl AL121974 33.6000 -72.6000 TS 45 0 18 6
1974246N27292 1974 99 NA NA DOLLY 1974-09-04 09:00:00 TS 34.5119 -72.4598 main 308 299 P_____________ AL121974 34.5119 -72.4598 TS 45 0 19 12
1974246N27292 1974 99 NA NA DOLLY 1974-09-04 12:00:00 TS 35.5000 -72.1000 45 hurdat_atl main 308 307 O_____________ hurdat_atl AL121974 35.5000 -72.1000 TS 45 0 22 20
1974246N27292 1974 99 NA NA DOLLY 1974-09-04 15:00:00 TS 36.5653 -71.5376 main 368 363 P_____________ AL121974 36.5653 -71.5376 TS 42 0 26 28
1974246N27292 1974 99 NA NA DOLLY 1974-09-04 18:00:00 TS 37.8000 -70.6000 40 hurdat_atl main 372 281 O_____________ hurdat_atl AL121974 37.8000 -70.6000 TS 40 0 33 34
1974246N27292 1974 99 NA NA DOLLY 1974-09-04 21:00:00 TS 39.3077 -69.2193 main 275 219 P_____________ AL121974 39.3077 -69.2193 TS 40 0 38 39
1974246N27292 1974 99 NA NA DOLLY 1974-09-05 00:00:00 TS 40.8000 -67.5000 40 hurdat_atl main 231 167 O_____________ hurdat_atl AL121974 40.8000 -67.5000 TS 40 0 38 45
1974246N27292 1974 99 NA NA DOLLY 1974-09-05 03:00:00 TS 42.0344 -65.6790 main 166 110 P_____________ AL121974 42.0344 -65.6790 TS 40 0 35 51
1974246N27292 1974 99 NA NA DOLLY 1974-09-05 06:00:00 TS 43.0000 -63.8000 40 hurdat_atl main 119 119 O_____________ hurdat_atl AL121974 43.0000 -63.8000 TS 40 0 31 58
1974246N27292 1974 99 NA NA DOLLY 1974-09-05 09:00:00 TS 43.6835 -62.0173 main 128 124 P_____________ AL121974 43.6835 -62.0173 TS 37 0 28 65
1974246N27292 1974 99 NA NA DOLLY 1974-09-05 12:00:00 ET 44.2000 -60.3000 35 1004 hurdat_atl main 127 O_____________ hurdat_atl AL121974 44.2000 -60.3000 EX 35 1004 -4 27 67

About IBTrACS Database

This database is a web-friendly format of International Best Track Archive for Climate Stewardship (IBTrACS), a global best track data archive curated by NOAA dating back to 1842.

Updated: 2021-11-26